Pagrindinis puslapis
METAR-TAF:

METAR-TAF

Oro uostai :

Vientianas, Laosas

platuma: 17-57N, ilguma: 102-34E, Aukštis: 171 m

Dabartinis oras

Ataskaita buvo paskelbta 5 valandos ir 33 minutes, ne 14:00 UTC
Ramus vėjas
Temperatūra 27°C
Drėgmė 94%
Slėgis 1009 hPa
Matomumas: 5000 m
Su prošvaistėmis ne aukštis 4000 ft
rūkana

METAR: VLVT 221400Z 00000KT 5000 BR BKN040 27/26 Q1009 NOSIG

Laikas: 02:33 (19:33 UTC)

Prognozė

Ataskaita buvo paskelbta 2 valandos ir 33 minutes, ne 17:00 UTC
Prognozė galioja nuo 22 metu 18 UTC su 23 metu 18 UTC
Vėjas 4 kt iš Šiaurės Vakarų
Matomumas: 8000 m
Išsisklaidę debesys ne aukštis 1600 ft
Su prošvaistėmis ne aukštis 8300 ft

TAF: VLVT 221700Z 2218/2318 32004KT 8000 SCT016 BKN083

Orai ataskaitas ir orų prognozės (METAR, TAF).

turimą stotys yra geltonos ir raudonos taškus žemėlapyje.

Perkelti pele per norėdami pamatyti stoties vardą.

Tada spustelėkite, norėdami matyti oro stebėjimo ir prognozės.

Norėdami pakeisti žemėlapį: spustelėkite ant žalios mygtukų su juodo kryžiaus žemyn,; žalią mygtuką su brūkšneliu, jei norite nutolinti; arba žalių rodyklių gretimoms žemėlapius.


METAR-TAF: